Time;durP1;ratioP1;P1;durP2;ratioP2;P2;SDS_P1;SDS_P2;PMS_P1;PMS_P2;Temp;Humidity;BMP_temperature;BMP_pressure;BME280_temperature;BME280_humidity;BME280_pressure;Samples;Min_cycle;Max_cycle;Signal;HPM_P1;HPM_P2
2022/11/12 00:00:32;;;;;;;7.73;3.30;;;;;;;-141.97;68.85;47836.22;5057428;28;20165;-82
2022/11/12 00:02:58;;;;;;;4.57;3.10;;;;;;;-141.97;69.45;47620.94;5051655;28;20256;-82
2022/11/12 00:05:24;;;;;;;5.23;3.17;;;;;;;-141.97;69.58;47809.31;5051453;28;20240;-81
2022/11/12 00:07:49;;;;;;;5.03;3.20;;;;;;;-141.97;69.97;47653.63;5051536;28;20165;-82
2022/11/12 00:10:15;;;;;;;6.77;3.57;;;;;;;-141.97;70.56;47757.41;5050806;28;20229;-82
2022/11/12 00:12:41;;;;;;;5.43;3.20;;;;;;;-141.97;71.51;47680.53;5051258;28;20226;-84
2022/11/12 00:15:07;;;;;;;5.17;3.47;;;;;;;-141.97;72.35;47749.72;5033258;28;20173;-82
2022/11/12 00:17:32;;;;;;;6.90;3.63;;;;;;;-141.97;72.99;47730.50;5051586;28;20629;-81
2022/11/12 00:19:58;;;;;;;6.33;3.70;;;;;;;-141.97;73.78;47811.25;5051198;28;20158;-81
2022/11/12 00:22:23;;;;;;;6.53;4.00;;;;;;;-141.97;74.22;47753.56;5051611;28;20248;-83
2022/11/12 00:24:49;;;;;;;6.93;3.50;;;;;;;-141.97;74.64;47757.41;5051114;28;20571;-83
2022/11/12 00:27:14;;;;;;;6.43;3.70;;;;;;;-141.97;74.86;47726.66;5033174;28;20179;-82
2022/11/12 00:29:40;;;;;;;6.10;3.93;;;;;;;-141.97;76.25;47745.88;5051084;28;20186;-82
2022/11/12 00:32:07;;;;;;;6.10;3.57;;;;;;;-141.97;76.65;47669.00;5051248;28;20544;-82
2022/11/12 00:34:32;;;;;;;6.63;4.40;;;;;;;-141.97;78.66;47768.94;5052032;28;20621;-83
2022/11/12 00:36:58;;;;;;;7.70;4.47;;;;;;;-141.97;79.27;47753.56;5051184;28;20164;-82
2022/11/12 00:39:24;;;;;;;7.93;4.13;;;;;;;-141.97;79.13;47759.34;5033338;28;20188;-82
2022/11/12 00:41:49;;;;;;;9.03;4.70;;;;;;;-141.97;80.43;47799.72;5051181;28;20165;-83
2022/11/12 00:44:15;;;;;;;9.53;4.43;;;;;;;-141.97;80.47;47822.78;5050913;28;20196;-82
2022/11/12 00:46:41;;;;;;;7.73;4.23;;;;;;;-141.97;77.65;47813.16;5033037;28;20234;-84
2022/11/12 00:49:06;;;;;;;7.00;4.47;;;;;;;-141.97;78.46;47784.34;5050949;28;20192;-83
2022/11/12 00:51:32;;;;;;;8.50;4.73;;;;;;;-141.97;80.04;47740.13;5051081;28;20200;-84
2022/11/12 00:53:57;;;;;;;8.70;4.67;;;;;;;-141.97;81.34;47809.31;5033304;28;20231;-82
2022/11/12 00:56:23;;;;;;;8.97;5.00;;;;;;;-141.97;80.99;47770.88;5050793;28;20207;-82
2022/11/12 00:58:48;;;;;;;8.77;4.90;;;;;;;-141.97;81.98;47745.88;5050638;28;20176;-82
2022/11/12 01:01:15;;;;;;;10.80;5.27;;;;;;;-141.97;82.00;47738.19;5050729;28;20177;-82
2022/11/12 01:03:41;;;;;;;8.93;5.10;;;;;;;-141.97;82.05;47799.72;5049341;28;20216;-83
2022/11/12 01:06:15;;;;;;;9.13;5.20;;;;;;;-141.97;82.67;47795.88;5050889;28;20278;-83
2022/11/12 01:08:41;;;;;;;10.73;5.73;;;;;;;-141.97;83.18;47807.41;5050700;28;20225;-83
2022/11/12 01:11:07;;;;;;;11.20;5.43;;;;;;;-141.97;82.31;47792.03;5050767;28;20255;-82
2022/11/12 01:13:32;;;;;;;11.03;5.90;;;;;;;-141.97;82.99;47784.34;5050821;28;20161;-82
2022/11/12 01:15:58;;;;;;;11.60;6.27;;;;;;;-141.97;83.60;47711.28;5052766;28;20197;-83
2022/11/12 01:18:23;;;;;;;9.60;5.60;;;;;;;-141.97;84.61;47822.78;5054632;28;20165;-82
2022/11/12 01:20:48;;;;;;;12.17;5.70;;;;;;;-141.97;86.13;47638.25;5054213;28;20166;-83
2022/11/12 01:23:14;;;;;;;12.93;7.07;;;;;;;-141.97;87.18;47692.06;5054194;28;20169;-85
2022/11/12 01:25:39;;;;;;;15.77;9.97;;;;;;;-141.97;86.89;47855.44;5054256;28;20165;-84
2022/11/12 01:28:05;;;;;;;14.67;9.73;;;;;;;-141.97;86.70;47901.59;5036660;28;20181;-83
2022/11/12 01:30:30;;;;;;;18.90;10.67;;;;;;;-141.97;86.69;47826.63;5054181;28;20199;-82
2022/11/12 01:32:55;;;;;;;13.53;7.97;;;;;;;-141.97;86.97;47895.81;5054148;28;20240;-83
2022/11/12 01:35:21;;;;;;;9.60;5.90;;;;;;;-141.97;86.38;47872.75;5054069;28;20165;-82
2022/11/12 01:37:46;;;;;;;10.07;5.97;;;;;;;-141.97;86.32;47757.41;5054178;28;20173;-82
2022/11/12 01:40:12;;;;;;;10.30;6.23;;;;;;;-141.97;86.23;47845.84;5054100;28;20236;-82
2022/11/12 01:42:38;;;;;;;9.97;5.57;;;;;;;-141.97;86.71;47784.34;5054171;28;20165;-82
2022/11/12 01:45:14;;;;;;;11.53;6.40;;;;;;;-141.97;86.50;47709.38;5054221;28;20265;-81
2022/11/12 01:47:42;;;;;;;11.87;6.03;;;;;;;-141.97;86.27;47807.41;5054354;28;20238;-82
2022/11/12 01:50:19;;;;;;;11.63;6.40;;;;;;;-141.97;86.05;47724.75;5053866;28;20573;-82
2022/11/12 01:52:51;;;;;;;11.80;6.70;;;;;;;-141.97;86.23;47607.50;5054047;28;20252;-82
2022/11/12 01:55:24;;;;;;;13.00;7.50;;;;;;;-141.97;85.39;47793.94;5053749;28;20193;-81
2022/11/12 01:58:03;;;;;;;14.57;8.23;;;;;;;-141.97;85.30;47834.31;5053710;28;20162;-81
2022/11/12 02:00:29;;;;;;;16.10;10.20;;;;;;;-141.97;85.47;47876.59;5053920;28;20162;-81
2022/11/12 02:02:59;;;;;;;14.47;8.67;;;;;;;-141.97;85.13;47751.66;5060779;28;20586;-80
2022/11/12 02:05:27;;;;;;;12.37;7.57;;;;;;;-141.97;85.39;47780.47;5063166;28;20260;-82
2022/11/12 02:07:53;;;;;;;19.07;9.43;;;;;;;-141.97;85.24;47732.44;5053458;28;20660;-82
2022/11/12 02:10:20;;;;;;;13.03;7.63;;;;;;;-141.97;85.54;47853.53;5053129;28;20254;-82
2022/11/12 02:15:30;;;;;;;11.80;7.00;;;;;;;-141.97;85.66;47880.44;5053818;28;20578;-81
2022/11/12 02:17:56;;;;;;;12.20;7.10;;;;;;;-141.97;85.69;47745.88;5053650;28;20158;-82
2022/11/12 02:20:21;;;;;;;11.63;6.97;;;;;;;-141.97;85.59;47732.44;5053339;28;20629;-81
2022/11/12 02:22:47;;;;;;;11.10;6.97;;;;;;;-141.97;86.34;47782.41;5053364;28;20193;-82
2022/11/12 02:25:17;;;;;;;15.23;7.40;;;;;;;-141.97;86.55;47767.03;5035760;28;20231;-82
2022/11/12 02:27:43;;;;;;;13.90;8.13;;;;;;;-141.97;86.29;47722.81;5053275;28;20164;-81
2022/11/12 02:30:10;;;;;;;20.43;11.10;;;;;;;-141.97;86.11;47795.88;5053338;28;20185;-82
2022/11/12 02:32:35;;;;;;;16.07;9.83;;;;;;;-141.97;86.58;47770.88;5052897;28;20252;-81
2022/11/12 02:35:00;;;;;;;22.10;11.10;;;;;;;-141.97;86.91;47613.25;5053203;28;20705;-81
2022/11/12 02:37:26;;;;;;;22.60;10.93;;;;;;;-141.97;87.08;47870.81;5051672;28;20173;-82
2022/11/12 02:39:51;;;;;;;24.57;12.57;;;;;;;-141.97;87.85;47770.88;5053073;28;20166;-82
2022/11/12 02:42:16;;;;;;;21.03;11.33;;;;;;;-141.97;88.50;47822.78;5052924;28;20548;-82
2022/11/12 02:44:42;;;;;;;16.60;9.80;;;;;;;-141.97;88.74;47803.56;5053087;28;20251;-82
2022/11/12 02:47:07;;;;;;;15.93;8.10;;;;;;;-141.97;89.08;47676.69;5034890;28;20214;-82
2022/11/12 02:49:33;;;;;;;13.37;7.43;;;;;;;-141.97;89.17;47815.09;5052741;28;20157;-82
2022/11/12 02:51:58;;;;;;;13.00;7.17;;;;;;;-141.97;89.87;47807.41;5052700;28;20166;-81
2022/11/12 02:54:24;;;;;;;14.53;7.70;;;;;;;-141.97;90.28;47878.53;5052652;28;20166;-81
2022/11/12 02:56:49;;;;;;;13.67;7.47;;;;;;;-141.97;91.34;47853.53;5052476;28;20166;-83
2022/11/12 02:59:14;;;;;;;13.50;7.53;;;;;;;-141.97;91.00;47857.38;5051621;28;20180;-81
2022/11/12 03:01:40;;;;;;;12.73;7.37;;;;;;;-141.97;90.65;47605.56;5052586;28;20158;-82
2022/11/12 03:04:05;;;;;;;13.37;7.67;;;;;;;-141.97;90.82;47580.59;5052358;28;20566;-81
2022/11/12 03:06:31;;;;;;;14.10;8.00;;;;;;;-141.97;90.95;47711.28;5052385;28;20164;-81
2022/11/12 03:08:56;;;;;;;13.97;8.17;;;;;;;-141.97;91.08;47813.16;5052459;28;20199;-82
2022/11/12 03:11:21;;;;;;;15.57;8.47;;;;;;;-141.97;91.33;47753.56;5052015;28;20263;-82
2022/11/12 03:13:47;;;;;;;13.93;7.90;;;;;;;-141.97;91.04;47759.34;5052266;28;20162;-82
2022/11/12 03:16:12;;;;;;;14.70;8.53;;;;;;;-141.97;90.92;47569.06;5052854;28;20162;-81
2022/11/12 03:18:38;;;;;;;16.77;8.30;;;;;;;-141.97;90.57;47818.94;5052206;28;20248;-82
2022/11/12 03:21:03;;;;;;;16.73;8.73;;;;;;;-141.97;90.85;47818.94;5052115;28;20158;-82
2022/11/12 03:23:29;;;;;;;17.93;8.87;;;;;;;-141.97;91.55;47603.66;5052049;28;20214;-82
2022/11/12 03:25:55;;;;;;;17.40;9.40;;;;;;;-141.97;92.05;47753.56;5052078;28;20181;-82
2022/11/12 03:28:20;;;;;;;15.87;8.77;;;;;;;-141.97;92.26;47863.13;5051997;28;20691;-82
2022/11/12 03:30:45;;;;;;;16.83;9.33;;;;;;;-141.97;92.56;47807.41;5052054;28;20701;-82
2022/11/12 03:33:12;;;;;;;18.03;9.30;;;;;;;-141.97;92.44;47661.31;5052010;28;20162;-82
2022/11/12 03:35:38;;;;;;;18.30;9.77;;;;;;;-141.97;92.41;47874.69;5051648;28;20158;-81
2022/11/12 03:38:04;;;;;;;17.77;9.63;;;;;;;-141.97;92.56;47792.03;5051126;28;20521;-82
2022/11/12 03:40:31;;;;;;;17.77;9.90;;;;;;;-141.97;93.30;47878.53;5051891;28;20660;-82
2022/11/12 03:42:56;;;;;;;16.67;9.50;;;;;;;-141.97;93.79;47619.03;5051716;28;20201;-82
2022/11/12 03:45:24;;;;;;;19.20;11.03;;;;;;;-141.97;93.01;47799.72;5052309;28;20221;-83
2022/11/12 03:47:52;;;;;;;23.43;11.43;;;;;;;-141.97;93.56;47786.25;5051883;28;20168;-82
2022/11/12 03:50:20;;;;;;;38.23;20.70;;;;;;;-141.97;94.01;47647.84;5051743;28;20579;-83
2022/11/12 03:52:48;;;;;;;31.00;17.50;;;;;;;-141.97;94.66;47697.84;5051999;28;20197;-82
2022/11/12 03:55:15;;;;;;;28.80;15.70;;;;;;;-141.97;95.09;47893.91;5051549;28;20169;-82
2022/11/12 03:57:41;;;;;;;24.23;13.77;;;;;;;-141.97;95.39;47743.97;5051511;28;20165;-82
2022/11/12 04:00:09;;;;;;;36.97;22.27;;;;;;;-141.97;94.64;47711.28;5051032;28;20192;-82
2022/11/12 04:02:35;;;;;;;27.70;17.07;;;;;;;-141.97;95.19;47776.63;5051268;28;20587;-82
2022/11/12 04:10:29;;;;;;;21.27;12.43;;;;;;;-141.97;95.55;47765.09;5054889;28;20239;-82
2022/11/12 04:15:39;;;;;;;19.80;11.03;;;;;;;-141.97;95.63;47597.88;5051280;28;20193;-81
2022/11/12 04:23:39;;;;;;;24.90;13.10;;;;;;;-141.97;95.42;47807.41;5009564;28;20197;-82
2022/11/12 04:26:22;;;;;;;33.97;17.27;;;;;;;-141.97;95.11;47715.13;5009314;28;20186;-82
2022/11/12 04:31:32;;;;;;;42.40;22.90;;;;;;;-141.97;93.93;47845.84;5010123;28;20260;-82
2022/11/12 04:34:27;;;;;;;32.00;17.93;;;;;;;-141.97;93.48;47655.53;5009526;28;20167;-82
2022/11/12 04:36:43;;;;;;;65.67;33.83;;;;;;;-141.97;93.60;47761.25;5009444;28;20514;-82
2022/11/12 04:39:08;;;;;;;60.73;31.57;;;;;;;-141.97;94.13;47880.44;5009336;28;20193;-83
2022/11/12 04:47:01;;;;;;;45.83;25.03;;;;;;;-141.97;93.65;47780.47;5009210;28;20336;-83
2022/11/12 04:49:27;;;;;;;41.27;24.23;;;;;;;-141.97;93.14;47830.47;5010471;28;20167;-82
2022/11/12 04:52:06;;;;;;;40.67;24.80;;;;;;;-141.97;92.70;47824.69;5013252;28;20214;-82
2022/11/12 04:54:33;;;;;;;37.20;21.37;;;;;;;-141.97;93.48;47745.88;5013144;28;20166;-82
2022/11/12 04:57:07;;;;;;;39.73;21.73;;;;;;;-141.97;93.32;47818.94;5018417;28;20277;-82
2022/11/12 04:59:33;;;;;;;41.90;23.60;;;;;;;-141.97;93.18;47715.13;5055000;28;20192;-82
2022/11/12 05:02:02;;;;;;;35.47;20.07;;;;;;;-141.97;92.90;47626.72;5054701;28;20268;-82
2022/11/12 05:04:39;;;;;;;30.73;16.90;;;;;;;-141.97;92.22;47780.47;5055208;28;20633;-82
2022/11/12 05:07:25;;;;;;;28.53;16.40;;;;;;;-141.97;92.09;47626.72;5054594;28;20284;-81
2022/11/12 05:09:53;;;;;;;26.23;14.27;;;;;;;-141.97;92.10;47776.63;5054954;28;20207;-82
2022/11/12 05:12:30;;;;;;;28.73;16.57;;;;;;;-141.97;92.62;47842.00;5053909;28;20217;-82
2022/11/12 05:15:01;;;;;;;25.10;13.97;;;;;;;-141.97;93.04;47884.28;5054755;28;20180;-83
2022/11/12 05:17:29;;;;;;;24.17;13.27;;;;;;;-141.97;92.80;47669.00;5054738;28;20169;-82
2022/11/12 05:19:54;;;;;;;22.03;12.80;;;;;;;-141.97;92.44;47720.91;5055401;28;20165;-82
2022/11/12 05:22:23;;;;;;;25.20;13.83;;;;;;;-141.97;92.80;47799.72;5054740;28;20171;-82
2022/11/12 05:24:51;;;;;;;22.47;12.50;;;;;;;-141.97;92.86;47669.00;5054638;28;20193;-82
2022/11/12 05:27:32;;;;;;;22.30;12.93;;;;;;;-141.97;92.88;47640.16;5054294;28;20165;-82
2022/11/12 05:30:03;;;;;;;24.23;13.20;;;;;;;-141.97;93.13;47876.59;5054205;28;20192;-83
2022/11/12 05:32:31;;;;;;;23.20;13.33;;;;;;;-141.97;92.87;47884.28;5054535;28;20244;-82
2022/11/12 05:35:02;;;;;;;24.43;13.67;;;;;;;-141.97;92.97;47676.69;5054726;28;20219;-82
2022/11/12 05:37:35;;;;;;;32.00;18.97;;;;;;;-141.97;92.65;47640.16;5054473;28;20227;-84
2022/11/12 05:40:09;;;;;;;26.07;16.37;;;;;;;-141.97;92.71;47832.38;5054285;28;20173;-83
2022/11/12 05:42:46;;;;;;;31.50;18.57;;;;;;;-141.97;92.42;47728.59;5055137;28;20188;-82
2022/11/12 05:45:21;;;;;;;25.13;15.43;;;;;;;-141.97;92.36;47770.88;5057530;28;20165;-82
2022/11/12 05:47:54;;;;;;;25.93;14.23;;;;;;;-141.97;92.43;47765.09;5068941;28;20186;-81
2022/11/12 05:50:20;;;;;;;23.60;14.10;;;;;;;-141.97;91.95;47672.84;5068586;28;20209;-82
2022/11/12 05:52:45;;;;;;;25.40;15.17;;;;;;;-141.97;92.41;47811.25;5060333;28;20191;-82
2022/11/12 05:55:10;;;;;;;28.50;14.40;;;;;;;-141.97;92.15;47884.28;5059429;28;20169;-83
2022/11/12 05:57:36;;;;;;;31.30;18.07;;;;;;;-141.97;92.03;47634.41;5056863;28;20184;-82
2022/11/12 06:00:02;;;;;;;28.07;16.13;;;;;;;-141.97;91.93;47847.75;5060313;28;20188;-82
2022/11/12 06:02:27;;;;;;;27.50;17.30;;;;;;;-141.97;92.33;47784.34;5053726;28;20160;-82
2022/11/12 06:04:53;;;;;;;27.40;14.00;;;;;;;-141.97;92.54;47790.09;5054024;28;20175;-81
2022/11/12 06:07:21;;;;;;;24.37;13.93;;;;;;;-141.97;92.01;47694.00;5053969;28;20264;-83
2022/11/12 06:09:46;;;;;;;23.67;13.70;;;;;;;-141.97;91.96;47792.03;5057898;28;20256;-81
2022/11/12 06:12:12;;;;;;;24.13;13.20;;;;;;;-141.97;91.98;47630.56;5066152;28;20249;-85
2022/11/12 06:14:37;;;;;;;25.50;13.73;;;;;;;-141.97;91.82;47857.38;5059303;28;20655;-82
2022/11/12 06:17:03;;;;;;;25.83;13.80;;;;;;;-141.97;92.48;47868.91;5054043;28;20277;-82
2022/11/12 06:19:29;;;;;;;26.73;14.20;;;;;;;-141.97;92.59;47849.69;5053872;28;20165;-81
2022/11/12 06:21:54;;;;;;;26.90;13.53;;;;;;;-141.97;93.11;47857.38;5053117;28;20188;-82
2022/11/12 06:24:19;;;;;;;28.17;14.17;;;;;;;-141.97;93.25;47607.50;5051843;28;20556;-82
2022/11/12 06:26:45;;;;;;;29.00;15.50;;;;;;;-141.97;93.70;47788.19;5053510;28;20165;-82
2022/11/12 06:29:10;;;;;;;29.77;15.77;;;;;;;-141.97;93.52;47880.44;5037049;28;20204;-82
2022/11/12 06:31:36;;;;;;;27.53;14.60;;;;;;;-141.97;93.63;47857.38;5054648;28;20186;-82
2022/11/12 06:34:02;;;;;;;27.80;13.73;;;;;;;-141.97;93.31;47776.63;5055116;28;20196;-82
2022/11/12 06:36:27;;;;;;;27.83;15.53;;;;;;;-141.97;93.71;47815.09;5052013;28;20173;-82
2022/11/12 06:38:52;;;;;;;28.60;15.73;;;;;;;-141.97;93.76;47645.94;5055284;28;20166;-80
2022/11/12 06:41:18;;;;;;;24.67;12.97;;;;;;;-141.97;93.63;47757.41;5036322;28;20165;-81
2022/11/12 06:43:43;;;;;;;21.20;12.40;;;;;;;-141.97;93.52;47842.00;5035112;28;20260;-81
2022/11/12 06:46:14;;;;;;;25.40;13.73;;;;;;;-141.97;93.24;47828.53;5054016;28;20161;-81
2022/11/12 06:48:40;;;;;;;27.67;15.00;;;;;;;-141.97;93.37;47751.66;5054082;28;20162;-82
2022/11/12 06:51:08;;;;;;;28.10;16.57;;;;;;;-141.97;93.37;47803.56;5054190;28;20200;-82
2022/11/12 06:53:34;;;;;;;25.30;13.40;;;;;;;-141.97;93.82;47753.56;5054628;28;20166;-82
2022/11/12 06:56:05;;;;;;;24.93;12.63;;;;;;;-141.97;93.05;47792.03;5053524;28;20162;-81
2022/11/12 06:58:30;;;;;;;26.07;13.60;;;;;;;-141.97;91.94;47772.78;5053889;28;20664;-82
2022/11/12 07:00:56;;;;;;;26.53;13.57;;;;;;;-141.97;91.73;47826.63;5052792;28;20162;-83
2022/11/12 07:03:21;;;;;;;19.63;10.47;;;;;;;-141.97;90.90;47824.69;5053720;28;20181;-82
2022/11/12 07:05:47;;;;;;;20.83;11.17;;;;;;;-141.97;90.04;47849.69;5053448;28;20537;-82
2022/11/12 07:08:12;;;;;;;20.40;9.00;;;;;;;-141.97;88.71;47753.56;5052381;28;20231;-83
2022/11/12 07:10:38;;;;;;;17.17;9.87;;;;;;;-141.97;87.94;47790.09;5053286;28;20316;-82
2022/11/12 07:13:03;;;;;;;16.57;8.47;;;;;;;-141.97;87.55;47865.06;5052676;28;20165;-82
2022/11/12 07:15:28;;;;;;;15.27;8.43;;;;;;;-141.97;87.09;47822.78;5053025;28;20636;-82
2022/11/12 07:17:54;;;;;;;17.23;8.47;;;;;;;-141.97;86.58;47826.63;5052309;28;20170;-82
2022/11/12 07:20:19;;;;;;;13.60;7.53;;;;;;;-141.97;85.53;47784.34;5052404;28;20157;-82
2022/11/12 07:22:45;;;;;;;12.70;7.73;;;;;;;-141.97;84.34;47778.56;5052094;28;20633;-82
2022/11/12 07:25:10;;;;;;;11.73;6.70;;;;;;;-141.97;84.05;47722.81;5052550;28;20221;-82
2022/11/12 07:27:35;;;;;;;12.07;6.80;;;;;;;-141.97;83.68;47868.91;5053093;28;20547;-82
2022/11/12 07:30:01;;;;;;;10.90;6.53;;;;;;;-141.97;83.31;47761.25;5056602;28;20205;-84
2022/11/12 07:32:26;;;;;;;12.00;6.40;;;;;;;-141.97;82.80;47795.88;5040215;28;20712;-82
2022/11/12 07:34:57;;;;;;;11.47;7.10;;;;;;;-141.97;83.76;47778.56;5053651;28;20662;-83
2022/11/12 07:37:26;;;;;;;8.63;5.40;;;;;;;-141.97;83.12;47640.16;5056878;28;20195;-84
2022/11/12 07:39:52;;;;;;;9.23;5.27;;;;;;;-141.97;83.47;47865.06;5042030;28;20172;-83
2022/11/12 07:42:17;;;;;;;8.13;5.00;;;;;;;-141.97;83.72;47649.78;5038693;28;20173;-82
2022/11/12 07:44:42;;;;;;;9.27;4.90;;;;;;;-141.97;82.54;47630.56;5054941;28;20165;-82
2022/11/12 07:47:08;;;;;;;7.93;4.80;;;;;;;-141.97;83.43;47755.50;5052792;28;20244;-83
2022/11/12 07:49:33;;;;;;;8.37;5.17;;;;;;;-141.97;83.48;47799.72;5051942;28;20182;-82
2022/11/12 07:51:59;;;;;;;7.97;4.77;;;;;;;-141.97;84.29;47590.19;5051623;28;20802;-81
2022/11/12 07:54:24;;;;;;;7.77;5.10;;;;;;;-141.97;84.57;47615.19;5052020;28;20196;-81
2022/11/12 07:56:50;;;;;;;7.23;4.37;;;;;;;-141.97;84.84;47768.94;5051626;28;20174;-81
2022/11/12 07:59:15;;;;;;;7.20;4.77;;;;;;;-141.97;85.17;47834.31;5033837;28;20177;-83
2022/11/12 08:01:41;;;;;;;7.93;4.83;;;;;;;-141.97;85.18;47876.59;5051551;28;20641;-83
2022/11/12 08:04:11;;;;;;;11.30;6.77;;;;;;;-141.97;85.43;47649.78;5051799;28;20157;-82
2022/11/12 08:06:37;;;;;;;13.63;7.20;;;;;;;-141.97;86.34;47865.06;5051661;28;20162;-81
2022/11/12 08:09:05;;;;;;;18.73;10.70;;;;;;;-141.97;86.88;47780.47;5051348;28;20196;-82
2022/11/12 08:11:31;;;;;;;26.67;13.53;;;;;;;-141.97;87.54;47626.72;5051060;28;20220;-82
2022/11/12 08:13:57;;;;;;;53.80;26.20;;;;;;;-141.97;87.01;47749.72;5051495;28;20636;-81
2022/11/12 08:16:22;;;;;;;25.37;13.93;;;;;;;-141.97;87.41;47805.47;5059073;28;20157;-81
2022/11/12 08:18:48;;;;;;;18.17;11.20;;;;;;;-141.97;88.18;47793.94;5066350;28;20165;-82
2022/11/12 08:21:15;;;;;;;11.80;6.77;;;;;;;-141.97;87.09;47743.97;5051535;28;20535;-83
2022/11/12 08:23:41;;;;;;;16.00;9.27;;;;;;;-141.97;86.89;47784.34;5051285;28;20169;-83
2022/11/12 08:26:10;;;;;;;26.07;13.77;;;;;;;-141.97;86.69;47738.19;5051361;28;20215;-83
2022/11/12 08:28:36;;;;;;;25.77;14.90;;;;;;;-141.97;86.96;47611.34;5051380;28;20180;-83
2022/11/12 08:31:10;;;;;;;19.97;11.30;;;;;;;-141.97;88.09;47749.72;5052264;28;20204;-83
2022/11/12 08:33:36;;;;;;;12.10;7.10;;;;;;;-141.97;88.13;47634.41;5033337;28;20165;-82
2022/11/12 08:36:03;;;;;;;11.30;5.40;;;;;;;-141.97;87.68;47717.06;5051067;28;20523;-83
2022/11/12 08:38:29;;;;;;;17.37;10.83;;;;;;;-141.97;89.21;47651.69;5051103;28;20215;-82
2022/11/12 08:40:59;;;;;;;16.47;9.53;;;;;;;-141.97;89.24;47669.00;5051109;28;20162;-83
2022/11/12 08:43:24;;;;;;;19.77;10.07;;;;;;;-141.97;88.11;47888.13;5051022;28;20205;-82
2022/11/12 08:45:49;;;;;;;57.97;22.30;;;;;;;-141.97;87.01;47788.19;5050965;28;20200;-83
2022/11/12 08:48:15;;;;;;;14.27;8.50;;;;;;;-141.97;87.29;47692.06;5033237;28;20169;-83
2022/11/12 08:50:41;;;;;;;24.67;14.60;;;;;;;-141.97;87.18;47707.44;5051153;28;20197;-82
2022/11/12 08:53:11;;;;;;;16.83;10.10;;;;;;;-141.97;87.09;47899.66;5050821;28;20650;-83
2022/11/12 08:55:37;;;;;;;23.10;12.30;;;;;;;-141.97;87.93;47797.78;5051331;28;20714;-82
2022/11/12 08:58:04;;;;;;;24.03;12.07;;;;;;;-141.97;87.90;47597.88;5050781;28;20173;-83
2022/11/12 09:00:35;;;;;;;14.40;8.00;;;;;;;-141.97;86.93;47788.19;5051086;28;20166;-83
2022/11/12 09:03:02;;;;;;;24.20;12.13;;;;;;;-141.97;87.90;47793.94;5050895;28;20165;-83
2022/11/12 09:05:28;;;;;;;17.67;10.33;;;;;;;-141.97;86.78;47845.84;5033052;28;20184;-83
2022/11/12 09:08:02;;;;;;;15.67;8.33;;;;;;;-141.97;85.29;47822.78;5051851;28;20169;-82
2022/11/12 09:10:28;;;;;;;8.03;5.30;;;;;;;-141.97;85.08;47718.97;5036209;28;20197;-83
2022/11/12 09:12:53;;;;;;;8.60;5.50;;;;;;;-141.97;85.94;47822.78;5054289;28;20169;-83
2022/11/12 09:15:20;;;;;;;6.37;3.97;;;;;;;-141.97;84.90;47613.25;5051488;28;20200;-83
2022/11/12 09:17:46;;;;;;;5.60;3.80;;;;;;;-141.97;85.18;47874.69;5033394;28;20204;-81
2022/11/12 09:20:11;;;;;;;9.33;5.63;;;;;;;-141.97;86.05;47836.22;5050714;28;20684;-82
2022/11/12 09:22:36;;;;;;;8.47;5.47;;;;;;;-141.97;85.64;47915.03;5032701;28;20517;-82
2022/11/12 09:25:03;;;;;;;6.77;4.00;;;;;;;-141.97;86.71;47582.50;5050952;28;20625;-82
2022/11/12 09:27:28;;;;;;;6.20;3.30;;;;;;;-141.97;85.58;47672.84;5050732;28;20166;-82
2022/11/12 09:29:54;;;;;;;22.83;15.63;;;;;;;-141.97;86.60;47780.47;5050665;28;20220;-82
2022/11/12 09:32:20;;;;;;;10.17;6.63;;;;;;;-141.97;86.30;47740.13;5050564;28;20171;-83
2022/11/12 09:34:46;;;;;;;9.37;6.17;;;;;;;-141.97;86.09;47865.06;5032562;28;20557;-82
2022/11/12 09:37:11;;;;;;;11.27;6.70;;;;;;;-141.97;84.72;47832.38;5053164;28;20161;-82
2022/11/12 09:39:37;;;;;;;11.13;7.50;;;;;;;-141.97;85.82;47619.03;5036306;28;20173;-82
2022/11/12 09:42:07;;;;;;;9.70;6.20;;;;;;;-141.97;85.88;47920.81;5054285;28;20180;-82
2022/11/12 09:44:36;;;;;;;9.90;6.13;;;;;;;-141.97;85.42;47778.56;5036683;28;20224;-82
2022/11/12 09:47:11;;;;;;;13.70;8.70;;;;;;;-141.97;85.45;47757.41;5054391;28;20173;-82
2022/11/12 09:49:49;;;;;;;46.10;22.67;;;;;;;-141.97;84.04;47534.44;5054429;28;20161;-82
2022/11/12 09:52:27;;;;;;;47.83;20.80;;;;;;;-141.97;83.35;47653.63;5054080;28;20252;-82
2022/11/12 09:55:10;;;;;;;34.63;19.00;;;;;;;-141.97;84.20;47888.13;5054275;28;20166;-82
2022/11/12 09:57:36;;;;;;;18.37;10.87;;;;;;;-141.97;85.10;47622.88;5054124;28;20169;-82
2022/11/12 10:00:15;;;;;;;14.13;8.63;;;;;;;-141.97;85.18;47726.66;5053955;28;20161;-82
2022/11/12 10:02:58;;;;;;;13.53;9.90;;;;;;;-141.97;85.35;47632.47;5053738;28;20189;-82
2022/11/12 10:05:26;;;;;;;10.83;7.13;;;;;;;-141.97;85.18;47632.47;5053725;28;20162;-82
2022/11/12 10:07:59;;;;;;;9.70;6.13;;;;;;;-141.97;84.52;47792.03;5053457;28;20315;-84
2022/11/12 10:10:44;;;;;;;9.70;6.83;;;;;;;-141.97;84.00;47815.09;5053684;28;20197;-83
2022/11/12 10:13:39;;;;;;;9.63;5.80;;;;;;;-141.97;84.87;47768.94;5053584;28;20218;-83
2022/11/12 10:16:42;;;;;;;12.67;6.70;;;;;;;-141.97;86.29;47584.44;5036029;28;20214;-82
2022/11/12 10:19:21;;;;;;;26.03;18.30;;;;;;;-141.97;86.78;47811.25;5054268;28;20187;-82
2022/11/12 10:22:05;;;;;;;17.20;11.10;;;;;;;-141.97;87.25;47828.53;5060146;28;20195;-82
2022/11/12 10:24:37;;;;;;;11.40;7.60;;;;;;;-141.97;86.13;47901.59;5064488;28;20169;-84
2022/11/12 10:27:21;;;;;;;16.67;10.73;;;;;;;-141.97;85.70;47653.63;5053642;28;20184;-83
2022/11/12 10:29:58;;;;;;;12.40;7.00;;;;;;;-141.97;85.16;47772.78;5053436;28;20162;-83
2022/11/12 10:32:23;;;;;;;11.93;7.00;;;;;;;-141.97;84.67;47786.25;5053529;28;20161;-83
2022/11/12 10:34:49;;;;;;;40.67;20.50;;;;;;;-141.97;84.68;47730.50;5053762;28;20240;-81
2022/11/12 10:37:23;;;;;;;16.93;9.80;;;;;;;-141.97;84.98;47745.88;5053572;28;20180;-82
2022/11/12 10:39:52;;;;;;;17.93;8.83;;;;;;;-141.97;84.67;47745.88;5053189;28;20165;-82
2022/11/12 10:42:20;;;;;;;34.40;18.47;;;;;;;-141.97;84.92;47788.19;5053087;28;20598;-82
2022/11/12 10:44:46;;;;;;;12.27;7.43;;;;;;;-141.97;83.66;47665.16;5035537;28;20181;-83
2022/11/12 10:47:30;;;;;;;7.13;4.47;;;;;;;-141.97;82.08;47797.78;5052927;28;20165;-82
2022/11/12 10:50:08;;;;;;;11.73;7.30;;;;;;;-141.97;82.62;47759.34;5057935;28;20162;-84
2022/11/12 10:52:34;;;;;;;11.80;8.27;;;;;;;-141.97;83.80;47890.06;5057837;28;20157;-83
2022/11/12 10:55:14;;;;;;;7.87;5.33;;;;;;;-141.97;84.69;47799.72;5056874;28;20565;-83
2022/11/12 10:57:40;;;;;;;12.57;8.17;;;;;;;-141.97;84.39;47857.38;5053646;28;20291;-81
2022/11/12 11:00:11;;;;;;;34.73;19.83;;;;;;;-141.97;83.13;47759.34;5052564;28;20244;-81
2022/11/12 11:02:45;;;;;;;39.37;19.30;;;;;;;-141.97;83.97;47657.47;5034694;28;20315;-81
2022/11/12 11:05:36;;;;;;;45.17;26.00;;;;;;;-141.97;84.30;47809.31;5054058;28;20248;-83
2022/11/12 11:08:27;;;;;;;53.73;32.70;;;;;;;-141.97;85.13;47895.81;5034589;28;20169;-83
2022/11/12 11:11:43;;;;;;;23.93;15.13;;;;;;;-141.97;88.42;47772.78;4995029;28;20246;-83
2022/11/12 11:14:38;;;;;;;27.07;12.50;;;;;;;-141.97;88.24;47726.66;4932870;29;20193;-84
2022/11/12 11:17:27;;;;;;;101.63;36.03;;;;;;;-141.97;87.75;47876.59;4952179;29;20184;-83
2022/11/12 11:20:04;;;;;;;34.73;15.80;;;;;;;-141.97;88.57;47888.13;4952960;29;20668;-82
2022/11/12 11:23:07;;;;;;;16.40;9.03;;;;;;;-141.97;89.27;47901.59;4952008;29;20183;-83
2022/11/12 11:26:18;;;;;;;16.20;9.50;;;;;;;-141.97;89.69;47724.75;4913914;29;20193;-83
2022/11/12 11:29:08;;;;;;;14.13;8.33;;;;;;;-141.97;90.23;47830.47;4913753;29;20219;-82
2022/11/12 11:31:55;;;;;;;7.97;4.97;;;;;;;-141.97;90.59;47799.72;4913929;29;20713;-82
2022/11/12 11:34:55;;;;;;;10.43;6.47;;;;;;;-141.97;91.17;47855.44;4914052;29;20267;-82
2022/11/12 11:37:46;;;;;;;40.30;19.03;;;;;;;-141.97;90.83;47776.63;4914254;29;20596;-82
2022/11/12 11:40:56;;;;;;;79.20;42.47;;;;;;;-141.97;91.36;47778.56;4913848;29;20188;-83